createdAt,value
2023-04-08T03:59:08.918Z,1017.22
2023-04-08T04:00:08.874Z,1017.23
2023-04-08T04:01:08.846Z,1017.22
2023-04-08T04:02:08.869Z,1017.23
2023-04-08T04:03:08.980Z,1017.22
2023-04-08T04:04:09.052Z,1017.22
2023-04-08T04:05:08.820Z,1017.23
2023-04-08T04:06:08.820Z,1017.20
2023-04-08T04:07:08.819Z,1017.22
2023-04-08T04:08:08.833Z,1017.25
2023-04-08T04:09:08.809Z,1017.25
2023-04-08T04:10:08.811Z,1017.25
2023-04-08T04:11:08.791Z,1017.25
2023-04-08T04:12:08.773Z,1017.26
2023-04-08T04:13:08.779Z,1017.26
2023-04-08T04:14:08.767Z,1017.24
2023-04-08T04:15:08.820Z,1017.23
2023-04-08T04:16:08.861Z,1017.23
2023-04-08T04:17:08.797Z,1017.26
2023-04-08T04:18:08.858Z,1017.27
2023-04-08T04:19:08.745Z,1017.31
2023-04-08T04:20:08.754Z,1017.29
2023-04-08T04:21:08.757Z,1017.30
2023-04-08T04:22:08.738Z,1017.29
2023-04-08T04:23:08.730Z,1017.31
2023-04-08T04:24:08.738Z,1017.31
2023-04-08T04:25:08.785Z,1017.32
2023-04-08T04:26:08.726Z,1017.34
2023-04-08T04:27:08.725Z,1017.36
2023-04-08T04:28:08.707Z,1017.34
2023-04-08T04:29:08.710Z,1017.35
2023-04-08T04:30:08.705Z,1017.35
2023-04-08T04:31:08.783Z,1017.35
2023-04-08T04:32:08.693Z,1017.36
2023-04-08T04:33:08.702Z,1017.35
2023-04-08T04:34:08.710Z,1017.36
2023-04-08T04:35:08.708Z,1017.37
2023-04-08T04:36:08.693Z,1017.37
2023-04-08T04:37:08.681Z,1017.37
2023-04-08T04:38:08.688Z,1017.40
2023-04-08T04:39:08.664Z,1017.43
2023-04-08T04:40:08.683Z,1017.44
2023-04-08T04:41:08.661Z,1017.39
2023-04-08T04:42:08.672Z,1017.42
2023-04-08T04:43:08.669Z,1017.43
2023-04-08T04:44:08.688Z,1017.47
2023-04-08T04:45:08.677Z,1017.48
2023-04-08T04:46:08.689Z,1017.48
2023-04-08T04:47:08.658Z,1017.45
2023-04-08T04:48:08.636Z,1017.46
2023-04-08T04:49:08.627Z,1017.45
2023-04-08T04:50:08.631Z,1017.45
2023-04-08T04:51:08.632Z,1017.43
2023-04-08T04:52:08.619Z,1017.42
2023-04-08T04:53:08.626Z,1017.47
2023-04-08T04:54:08.631Z,1017.51
2023-04-08T04:55:08.620Z,1017.53
2023-04-08T04:56:08.654Z,1017.53
2023-04-08T04:57:08.607Z,1017.53
2023-04-08T04:58:08.622Z,1017.54
2023-04-08T04:59:08.590Z,1017.53
2023-04-08T05:00:08.625Z,1017.56
2023-04-08T05:01:08.597Z,1017.55
2023-04-08T05:02:08.670Z,1017.57
2023-04-08T05:03:08.818Z,1017.55
2023-04-08T05:04:08.583Z,1017.57
2023-04-08T05:05:08.604Z,1017.54
2023-04-08T05:06:08.632Z,1017.57
2023-04-08T05:07:08.576Z,1017.55
2023-04-08T05:08:08.585Z,1017.49
2023-04-08T05:09:08.561Z,1017.50
2023-04-08T05:10:08.569Z,1017.50
2023-04-08T05:11:08.565Z,1017.56
2023-04-08T05:12:08.570Z,1017.60
2023-04-08T05:13:08.581Z,1017.60
2023-04-08T05:14:08.587Z,1017.59
2023-04-08T05:15:08.570Z,1017.65
2023-04-08T05:16:08.630Z,1017.69
2023-04-08T05:17:08.558Z,1017.72
2023-04-08T05:18:08.616Z,1017.70
2023-04-08T05:19:08.705Z,1017.72
2023-04-08T05:20:08.526Z,1017.74
2023-04-08T05:21:08.559Z,1017.74
2023-04-08T05:22:08.536Z,1017.75
2023-04-08T05:23:08.525Z,1017.73
2023-04-08T05:24:08.528Z,1017.75
2023-04-08T05:25:08.521Z,1017.79
2023-04-08T05:26:08.540Z,1017.81
2023-04-08T05:27:08.519Z,1017.78
2023-04-08T05:28:08.528Z,1017.82
2023-04-08T05:29:08.499Z,1017.85
2023-04-08T05:30:08.497Z,1017.84
2023-04-08T05:31:08.605Z,1017.81
2023-04-08T05:32:08.519Z,1017.82
2023-04-08T05:33:08.553Z,1017.81
2023-04-08T05:34:08.487Z,1017.81
2023-04-08T05:35:08.517Z,1017.85
2023-04-08T05:36:08.484Z,1017.85
2023-04-08T05:37:08.518Z,1017.88
2023-04-08T05:38:08.495Z,1017.93
2023-04-08T05:39:08.501Z,1017.90
2023-04-08T05:40:08.476Z,1017.89
2023-04-08T05:41:08.469Z,1017.91
2023-04-08T05:42:08.471Z,1017.92
2023-04-08T05:43:08.486Z,1017.90
2023-04-08T05:44:08.454Z,1017.89
2023-04-08T05:45:08.458Z,1017.89
2023-04-08T05:46:08.467Z,1017.88
2023-04-08T05:47:08.542Z,1017.90
2023-04-08T05:48:08.502Z,1017.86
2023-04-08T05:49:08.478Z,1017.89
2023-04-08T05:50:08.431Z,1017.87
2023-04-08T05:51:08.451Z,1017.87
2023-04-08T05:52:08.432Z,1017.85
2023-04-08T05:53:08.456Z,1017.85
2023-04-08T05:54:08.417Z,1017.86
2023-04-08T05:55:08.455Z,1017.87
2023-04-08T05:56:08.418Z,1017.91
2023-04-08T05:57:09.884Z,1017.88
2023-04-08T05:58:08.407Z,1017.93
2023-04-08T05:59:08.390Z,1017.96
2023-04-08T06:00:08.416Z,1017.99
2023-04-08T06:01:08.394Z,1018.01
2023-04-08T06:02:08.427Z,1018.02
2023-04-08T06:03:08.566Z,1018.04
2023-04-08T06:04:08.489Z,1018.06
2023-04-08T06:05:08.374Z,1018.05
2023-04-08T06:06:08.426Z,1018.10
2023-04-08T06:07:08.388Z,1018.11
2023-04-08T06:08:08.398Z,1018.16
2023-04-08T06:09:08.368Z,1018.17
2023-04-08T06:10:08.362Z,1018.22
2023-04-08T06:11:08.380Z,1018.20
2023-04-08T06:12:08.356Z,1018.21
2023-04-08T06:13:08.396Z,1018.22
2023-04-08T06:14:08.375Z,1018.20
2023-04-08T06:15:08.332Z,1018.23
2023-04-08T06:16:08.365Z,1018.24
2023-04-08T06:17:08.387Z,1018.20
2023-04-08T06:18:08.506Z,1018.21
2023-04-08T06:19:08.332Z,1018.25
2023-04-08T06:20:08.345Z,1018.28
2023-04-08T06:21:08.318Z,1018.32
2023-04-08T06:22:08.338Z,1018.33
2023-04-08T06:23:08.345Z,1018.33
2023-04-08T06:24:08.308Z,1018.38
2023-04-08T06:25:08.352Z,1018.43
2023-04-08T06:26:08.295Z,1018.44
2023-04-08T06:27:08.294Z,1018.44
2023-04-08T06:28:08.298Z,1018.39
2023-04-08T06:29:08.331Z,1018.40
2023-04-08T06:30:08.280Z,1018.40
2023-04-08T06:31:08.294Z,1018.44
2023-04-08T06:32:09.047Z,1018.45
2023-04-08T06:33:08.277Z,1018.47
2023-04-08T06:34:08.278Z,1018.48
2023-04-08T06:35:08.270Z,1018.52
2023-04-08T06:36:08.353Z,1018.50
2023-04-08T06:37:08.302Z,1018.50
2023-04-08T06:38:08.260Z,1018.52
2023-04-08T06:39:08.273Z,1018.53
2023-04-08T06:40:08.270Z,1018.53
2023-04-08T06:41:08.306Z,1018.49
2023-04-08T06:42:08.265Z,1018.55
2023-04-08T06:43:08.243Z,1018.56
2023-04-08T06:44:08.245Z,1018.56
2023-04-08T06:45:08.248Z,1018.57
2023-04-08T06:46:08.289Z,1018.56
2023-04-08T06:47:08.265Z,1018.58
2023-04-08T06:48:08.308Z,1018.55
2023-04-08T06:49:08.234Z,1018.54
2023-04-08T06:50:08.235Z,1018.56
2023-04-08T06:51:08.221Z,1018.57
2023-04-08T06:52:08.253Z,1018.55
2023-04-08T06:53:08.219Z,1018.58
2023-04-08T06:54:08.214Z,1018.55
2023-04-08T06:55:08.220Z,1018.54
2023-04-08T06:56:08.224Z,1018.53
2023-04-08T06:57:08.231Z,1018.57
2023-04-08T06:58:08.444Z,1018.59
2023-04-08T06:59:08.197Z,1018.57
2023-04-08T07:00:08.209Z,1018.59
2023-04-08T07:01:08.213Z,1018.59
2023-04-08T07:02:08.287Z,1018.59
2023-04-08T07:03:08.325Z,1018.59
2023-04-08T07:04:08.208Z,1018.59
2023-04-08T07:05:08.179Z,1018.68
2023-04-08T07:06:08.190Z,1018.67
2023-04-08T07:07:08.172Z,1018.72
2023-04-08T07:08:08.196Z,1018.68
2023-04-08T07:09:08.184Z,1018.69
2023-04-08T07:10:10.360Z,1018.66
2023-04-08T07:11:08.192Z,1018.72
2023-04-08T07:12:08.184Z,1018.71
2023-04-08T07:13:08.190Z,1018.73
2023-04-08T07:14:08.148Z,1018.74
2023-04-08T07:15:08.178Z,1018.74
2023-04-08T07:16:08.154Z,1018.78
2023-04-08T07:17:08.373Z,1018.76
2023-04-08T07:18:08.173Z,1018.77
2023-04-08T07:19:08.166Z,1018.82
2023-04-08T07:20:08.159Z,1018.81
2023-04-08T07:21:08.131Z,1018.81
2023-04-08T07:22:08.145Z,1018.85
2023-04-08T07:23:08.144Z,1018.86
2023-04-08T07:24:08.161Z,1018.87
2023-04-08T07:25:08.155Z,1018.86
2023-04-08T07:26:08.120Z,1018.84
2023-04-08T07:27:08.144Z,1018.81
2023-04-08T07:28:08.112Z,1018.88
2023-04-08T07:29:08.117Z,1018.87
2023-04-08T07:30:08.104Z,1018.87
2023-04-08T07:31:08.243Z,1018.90
2023-04-08T07:32:08.093Z,1018.89
2023-04-08T07:33:08.130Z,1018.90
2023-04-08T07:34:08.106Z,1018.93
2023-04-08T07:35:08.106Z,1018.88
2023-04-08T07:36:08.083Z,1018.91
2023-04-08T07:37:08.080Z,1018.95
2023-04-08T07:38:08.104Z,1018.97
2023-04-08T07:39:08.105Z,1018.93
2023-04-08T07:40:08.082Z,1018.90
2023-04-08T07:41:08.065Z,1018.92
2023-04-08T07:42:08.060Z,1018.92
2023-04-08T07:43:08.115Z,1018.95
2023-04-08T07:44:08.087Z,1018.93
2023-04-08T07:45:08.069Z,1018.95
2023-04-08T07:46:08.074Z,1018.96
2023-04-08T07:47:08.048Z,1018.97
2023-04-08T07:48:08.066Z,1018.98
2023-04-08T07:49:08.076Z,1019.00
2023-04-08T07:50:08.047Z,1018.98
2023-04-08T07:52:40.570Z,1019.02
2023-04-08T07:53:40.734Z,1019.02
2023-04-08T07:54:40.560Z,1019.07
2023-04-08T07:55:40.553Z,1019.06
2023-04-08T07:56:40.575Z,1019.03
2023-04-08T07:57:40.568Z,1019.07
2023-04-08T07:58:40.573Z,1019.01
2023-04-08T07:59:40.564Z,1019.01
2023-04-08T08:00:40.536Z,1019.00
2023-04-08T08:01:40.564Z,1018.99
2023-04-08T08:02:40.625Z,1018.99
2023-04-08T08:03:40.671Z,1019.02
2023-04-08T08:04:40.943Z,1019.05
2023-04-08T08:05:40.517Z,1019.02
2023-04-08T08:06:40.515Z,1019.07
2023-04-08T08:07:40.632Z,1019.01
2023-04-08T08:08:40.533Z,1019.06
2023-04-08T08:09:40.555Z,1019.06
2023-04-08T08:10:40.507Z,1018.99
2023-04-08T08:11:40.536Z,1018.96
2023-04-08T08:12:40.521Z,1019.03
2023-04-08T08:13:40.516Z,1019.04
2023-04-08T08:14:40.555Z,1019.00
2023-04-08T08:15:40.539Z,1019.00
2023-04-08T08:16:40.537Z,1019.04
2023-04-08T08:17:40.523Z,1019.06
2023-04-08T08:18:40.693Z,1019.08
2023-04-08T08:19:40.557Z,1019.11
2023-04-08T08:20:40.524Z,1019.10
2023-04-08T08:21:40.479Z,1019.15
2023-04-08T08:22:50.911Z,1019.14
2023-04-08T08:23:40.501Z,1019.16
2023-04-08T08:24:40.497Z,1019.16
2023-04-08T08:25:40.487Z,1019.15
2023-04-08T08:26:40.463Z,1019.17
2023-04-08T08:27:40.489Z,1019.17
2023-04-08T08:28:40.472Z,1019.20
2023-04-08T08:29:40.472Z,1019.20
2023-04-08T08:30:40.486Z,1019.21
2023-04-08T08:31:40.461Z,1019.22
2023-04-08T08:32:40.464Z,1019.23
2023-04-08T08:33:40.473Z,1019.22
2023-04-08T08:34:40.451Z,1019.20
2023-04-08T08:35:40.503Z,1019.18
2023-04-08T08:36:40.463Z,1019.25
2023-04-08T08:37:40.449Z,1019.28
2023-04-08T08:38:40.450Z,1019.32
2023-04-08T08:39:40.437Z,1019.35
2023-04-08T08:40:40.441Z,1019.34
2023-04-08T08:41:40.419Z,1019.35
2023-04-08T08:42:40.423Z,1019.37
2023-04-08T08:43:40.430Z,1019.37
2023-04-08T08:44:40.437Z,1019.37
2023-04-08T08:45:40.417Z,1019.34
2023-04-08T08:46:40.481Z,1019.37
2023-04-08T08:47:40.424Z,1019.38
2023-04-08T08:48:40.432Z,1019.41
2023-04-08T08:49:40.401Z,1019.40
2023-04-08T08:50:40.415Z,1019.39
2023-04-08T08:51:40.410Z,1019.39
2023-04-08T08:52:40.389Z,1019.40
2023-04-08T08:53:40.382Z,1019.39
2023-04-08T08:54:40.398Z,1019.44
2023-04-08T08:56:05.627Z,1019.38
2023-04-08T08:56:40.390Z,1019.44
2023-04-08T08:57:40.379Z,1019.39
2023-04-08T08:58:40.381Z,1019.38
2023-04-08T08:59:40.376Z,1019.39
2023-04-08T09:00:40.378Z,1019.39
2023-04-08T09:01:40.419Z,1019.42
2023-04-08T09:02:40.554Z,1019.45
2023-04-08T09:03:40.565Z,1019.41
2023-04-08T09:04:40.623Z,1019.44
2023-04-08T09:05:40.424Z,1019.39
2023-04-08T09:06:40.357Z,1019.38
2023-04-08T09:07:40.374Z,1019.40
2023-04-08T09:08:40.364Z,1019.39
2023-04-08T09:09:40.367Z,1019.40
2023-04-08T09:10:40.342Z,1019.41
2023-04-08T09:11:40.346Z,1019.37
2023-04-08T09:12:40.345Z,1019.39
2023-04-08T09:13:40.360Z,1019.37
2023-04-08T09:14:40.370Z,1019.39
2023-04-08T09:15:40.342Z,1019.40
2023-04-08T09:16:40.433Z,1019.41
2023-04-08T09:17:40.412Z,1019.44
2023-04-08T09:18:40.368Z,1019.44
2023-04-08T09:19:40.328Z,1019.44
2023-04-08T09:20:40.319Z,1019.43
2023-04-08T09:21:40.324Z,1019.44
2023-04-08T09:22:40.330Z,1019.43
2023-04-08T09:23:40.366Z,1019.45
2023-04-08T09:24:40.315Z,1019.47
2023-04-08T09:25:40.335Z,1019.45
2023-04-08T09:26:40.307Z,1019.43
2023-04-08T09:27:40.313Z,1019.45
2023-04-08T09:28:40.304Z,1019.47
2023-04-08T09:29:40.331Z,1019.45
2023-04-08T09:30:40.305Z,1019.41
2023-04-08T09:31:40.351Z,1019.43
2023-04-08T09:32:40.328Z,1019.44
2023-04-08T09:33:40.293Z,1019.40
2023-04-08T09:34:40.351Z,1019.39
2023-04-08T09:35:40.346Z,1019.42
2023-04-08T09:36:40.294Z,1019.42
2023-04-08T09:37:40.303Z,1019.46
2023-04-08T09:38:40.312Z,1019.41
2023-04-08T09:39:40.286Z,1019.42
2023-04-08T09:40:40.315Z,1019.44
2023-04-08T09:41:40.277Z,1019.41
2023-04-08T09:42:40.275Z,1019.43
2023-04-08T09:43:40.274Z,1019.46
2023-04-08T09:44:40.293Z,1019.43
2023-04-08T09:45:40.329Z,1019.46
2023-04-08T09:46:40.258Z,1019.49
2023-04-08T09:47:40.324Z,1019.50
2023-04-08T09:48:40.306Z,1019.48
2023-04-08T09:49:40.274Z,1019.52
2023-04-08T09:50:40.280Z,1019.52
2023-04-08T09:51:40.249Z,1019.53
2023-04-08T09:52:40.275Z,1019.49
2023-04-08T09:53:40.259Z,1019.54
2023-04-08T09:54:40.280Z,1019.52
2023-04-08T09:55:40.251Z,1019.50
2023-04-08T09:56:40.233Z,1019.51
2023-04-08T09:57:40.239Z,1019.47
2023-04-08T09:58:40.249Z,1019.49
2023-04-08T09:59:40.256Z,1019.50
2023-04-08T10:00:40.267Z,1019.52
2023-04-08T10:01:40.364Z,1019.49
2023-04-08T10:13:30.389Z,1019.52
2023-04-08T10:14:30.330Z,1019.56
2023-04-08T10:15:30.311Z,1019.54
2023-04-08T10:16:30.367Z,1019.59
2023-04-08T10:17:30.306Z,1019.55
2023-04-08T10:18:30.293Z,1019.52
2023-04-08T10:19:30.284Z,1019.59
2023-04-08T10:20:30.295Z,1019.60
2023-04-08T10:21:30.275Z,1019.60
2023-04-08T10:22:30.264Z,1019.63
2023-04-08T10:23:30.277Z,1019.60
2023-04-08T10:24:30.275Z,1019.63
2023-04-08T10:25:30.291Z,1019.63
2023-04-08T10:26:30.355Z,1019.65
2023-04-08T10:27:30.253Z,1019.62
2023-04-08T10:28:30.244Z,1019.70
2023-04-08T10:29:30.288Z,1019.68
2023-04-08T10:30:30.268Z,1019.71
2023-04-08T10:31:30.295Z,1019.73
2023-04-08T10:32:30.311Z,1019.72
2023-04-08T10:33:30.264Z,1019.72
2023-04-08T10:34:30.240Z,1019.73
2023-04-08T10:35:30.314Z,1019.73
2023-04-08T10:36:30.237Z,1019.70
2023-04-08T10:37:30.224Z,1019.74
2023-04-08T10:38:30.218Z,1019.71
2023-04-08T10:39:30.233Z,1019.75
2023-04-08T10:40:30.238Z,1019.70
2023-04-08T10:41:30.220Z,1019.72
2023-04-08T10:42:30.337Z,1019.73
2023-04-08T10:43:30.217Z,1019.74
2023-04-08T10:44:30.231Z,1019.76
2023-04-08T10:45:30.233Z,1019.76
2023-04-08T10:46:30.291Z,1019.77
2023-04-08T10:47:30.307Z,1019.74
2023-04-08T10:48:30.205Z,1019.73
2023-04-08T10:49:30.201Z,1019.73
2023-04-08T10:50:30.228Z,1019.75
2023-04-08T10:51:31.758Z,1019.74
2023-04-08T10:52:30.226Z,1019.74
2023-04-08T10:53:30.191Z,1019.77
2023-04-08T10:54:30.206Z,1019.77
2023-04-08T10:55:30.204Z,1019.74
2023-04-08T10:56:30.203Z,1019.79
2023-04-08T10:57:30.183Z,1019.82
2023-04-08T10:58:30.188Z,1019.79
2023-04-08T10:59:30.194Z,1019.79
2023-04-08T11:00:30.212Z,1019.79
2023-04-08T11:01:30.290Z,1019.82
2023-04-08T11:02:30.289Z,1019.83
2023-04-08T11:03:30.284Z,1019.81
2023-04-08T11:04:30.365Z,1019.83
2023-04-08T11:05:30.176Z,1019.84
2023-04-08T11:06:30.178Z,1019.80
2023-04-08T11:07:30.162Z,1019.77
2023-04-08T11:08:30.180Z,1019.80
2023-04-08T11:09:30.182Z,1019.78
2023-04-08T11:10:30.164Z,1019.76
2023-04-08T11:11:30.200Z,1019.78
2023-04-08T11:12:30.166Z,1019.78
2023-04-08T11:13:30.158Z,1019.78
2023-04-08T11:14:30.158Z,1019.77
2023-04-08T11:15:30.168Z,1019.76
2023-04-08T11:16:30.451Z,1019.78
2023-04-08T11:17:30.187Z,1019.74
2023-04-08T11:18:30.147Z,1019.76
2023-04-08T11:19:30.158Z,1019.77
2023-04-08T11:20:30.145Z,1019.76
2023-04-08T11:21:30.159Z,1019.76
2023-04-08T11:22:30.139Z,1019.73
2023-04-08T11:23:30.139Z,1019.71
2023-04-08T11:24:30.170Z,1019.71
2023-04-08T11:25:30.147Z,1019.74
2023-04-08T11:26:30.132Z,1019.73
2023-04-08T11:27:30.125Z,1019.75
2023-04-08T11:28:30.134Z,1019.77
2023-04-08T11:29:30.121Z,1019.74
2023-04-08T11:30:30.130Z,1019.75
2023-04-08T11:31:30.162Z,1019.77
2023-04-08T11:32:30.201Z,1019.76
2023-04-08T11:33:30.152Z,1019.75
2023-04-08T11:34:30.139Z,1019.72
2023-04-08T11:35:30.202Z,1019.75
2023-04-08T11:36:30.161Z,1019.77
2023-04-08T11:37:30.094Z,1019.78
2023-04-08T11:38:30.121Z,1019.73
2023-04-08T11:39:30.101Z,1019.79
2023-04-08T11:40:30.101Z,1019.75
2023-04-08T11:41:30.093Z,1019.75
2023-04-08T11:42:30.100Z,1019.75
2023-04-08T11:43:30.118Z,1019.76
2023-04-08T11:44:30.087Z,1019.70
2023-04-08T11:45:30.134Z,1019.72
2023-04-08T11:46:30.151Z,1019.74
2023-04-08T11:47:30.107Z,1019.74
2023-04-08T11:48:30.079Z,1019.74
2023-04-08T11:49:30.093Z,1019.72
2023-04-08T11:50:30.112Z,1019.70
2023-04-08T11:51:30.084Z,1019.73
2023-04-08T11:52:30.116Z,1019.70
2023-04-08T11:53:30.097Z,1019.71
2023-04-08T11:54:30.070Z,1019.67
2023-04-08T11:55:30.092Z,1019.67
2023-04-08T11:56:30.079Z,1019.65
2023-04-08T11:57:30.099Z,1019.65
2023-04-08T11:58:30.080Z,1019.66
2023-04-08T11:59:30.128Z,1019.63
2023-04-08T12:00:30.066Z,1019.65
2023-04-08T12:01:30.069Z,1019.65
2023-04-08T12:02:30.114Z,1019.66
2023-04-08T12:03:30.227Z,1019.67
2023-04-08T12:04:30.204Z,1019.71
2023-04-08T12:05:30.070Z,1019.70
2023-04-08T12:06:30.047Z,1019.64
2023-04-08T12:07:30.039Z,1019.66
2023-04-08T12:08:30.056Z,1019.68
2023-04-08T12:09:30.034Z,1019.64
2023-04-08T12:10:30.030Z,1019.67
2023-04-08T12:11:30.036Z,1019.69
2023-04-08T12:12:30.029Z,1019.68
2023-04-08T12:13:30.049Z,1019.70
2023-04-08T12:14:30.032Z,1019.70
2023-04-08T12:15:30.038Z,1019.72
2023-04-08T12:16:30.076Z,1019.72
2023-04-08T12:17:30.066Z,1019.67
2023-04-08T12:18:30.033Z,1019.68
2023-04-08T12:19:30.848Z,1019.74
2023-04-08T12:20:30.044Z,1019.70
2023-04-08T12:21:30.027Z,1019.76
2023-04-08T12:22:30.050Z,1019.77
2023-04-08T12:23:30.018Z,1019.75
2023-04-08T12:24:30.020Z,1019.73
2023-04-08T12:25:30.012Z,1019.76
2023-04-08T12:26:30.000Z,1019.79
2023-04-08T12:27:30.012Z,1019.72
2023-04-08T12:28:30.021Z,1019.74
2023-04-08T12:29:30.008Z,1019.74
2023-04-08T12:30:30.008Z,1019.73
2023-04-08T12:31:30.061Z,1019.73
2023-04-08T12:32:30.042Z,1019.75
2023-04-08T12:33:30.028Z,1019.78
2023-04-08T12:34:30.009Z,1019.76
2023-04-08T12:35:29.992Z,1019.77
2023-04-08T12:36:29.991Z,1019.77
2023-04-08T12:37:30.003Z,1019.80
2023-04-08T12:38:29.986Z,1019.76
2023-04-08T12:39:30.015Z,1019.74
2023-04-08T12:40:30.002Z,1019.76
2023-04-08T12:41:29.986Z,1019.75
2023-04-08T12:42:29.983Z,1019.76
2023-04-08T12:43:29.987Z,1019.76
2023-04-08T12:44:30.009Z,1019.79
2023-04-08T12:45:30.005Z,1019.79
2023-04-08T12:46:30.018Z,1019.77
2023-04-08T12:47:30.026Z,1019.84
2023-04-08T12:48:29.967Z,1019.79
2023-04-08T12:49:30.817Z,1019.81
2023-04-08T12:50:29.976Z,1019.81
2023-04-08T12:51:29.962Z,1019.81
2023-04-08T12:52:29.967Z,1019.82
2023-04-08T12:53:29.994Z,1019.81
2023-04-08T12:54:29.965Z,1019.84
2023-04-08T12:55:29.983Z,1019.85
2023-04-08T12:56:29.961Z,1019.82
2023-04-08T12:57:29.961Z,1019.84
2023-04-08T12:58:29.977Z,1019.79
2023-04-08T12:59:29.949Z,1019.80
2023-04-08T13:00:29.977Z,1019.84
2023-04-08T13:01:30.044Z,1019.85
2023-04-08T13:04:02.658Z,1019.83
2023-04-08T13:05:02.517Z,1019.81
2023-04-08T13:06:02.504Z,1019.81
2023-04-08T13:07:02.533Z,1019.81
2023-04-08T13:08:02.461Z,1019.84
2023-04-08T13:09:02.473Z,1019.86
2023-04-08T13:10:02.460Z,1019.85
2023-04-08T13:11:02.464Z,1019.86
2023-04-08T13:12:02.454Z,1019.84
2023-04-08T13:13:02.462Z,1019.85
2023-04-08T13:14:02.466Z,1019.92
2023-04-08T13:15:02.460Z,1019.85
2023-04-08T13:16:02.517Z,1019.89
2023-04-08T13:17:02.466Z,1019.89
2023-04-08T13:18:02.469Z,1019.91
2023-04-08T13:19:02.434Z,1019.91
2023-04-08T13:20:02.497Z,1019.87
2023-04-08T13:21:02.446Z,1019.89
2023-04-08T13:22:02.436Z,1019.87
2023-04-08T13:23:02.433Z,1019.85
2023-04-08T13:24:02.456Z,1019.90
2023-04-08T13:25:02.449Z,1019.86
2023-04-08T13:26:02.424Z,1019.87
2023-04-08T13:27:02.439Z,1019.85
2023-04-08T13:28:02.446Z,1019.87
2023-04-08T13:29:02.605Z,1019.85
2023-04-08T13:30:02.424Z,1019.83
2023-04-08T13:31:02.417Z,1019.87
2023-04-08T13:32:02.426Z,1019.87
2023-04-08T13:33:02.481Z,1019.82
2023-04-08T13:34:02.426Z,1019.84
2023-04-08T13:35:02.407Z,1019.82
2023-04-08T13:36:02.435Z,1019.83
2023-04-08T13:37:02.406Z,1019.85
2023-04-08T13:38:02.424Z,1019.82
2023-04-08T13:39:02.408Z,1019.86
2023-04-08T13:40:02.422Z,1019.82
2023-04-08T13:41:02.415Z,1019.85
2023-04-08T13:42:02.381Z,1019.86
2023-04-08T13:43:02.388Z,1019.87
2023-04-08T13:44:02.382Z,1019.85
2023-04-08T13:45:02.391Z,1019.86
2023-04-08T13:46:02.416Z,1019.91
2023-04-08T13:47:02.379Z,1019.88
2023-04-08T13:48:02.400Z,1019.87
2023-04-08T13:49:02.390Z,1019.88
2023-04-08T13:50:02.396Z,1019.87
2023-04-08T13:51:02.375Z,1019.87
2023-04-08T13:52:02.401Z,1019.87
2023-04-08T13:53:02.368Z,1019.88
2023-04-08T13:54:02.356Z,1019.90
2023-04-08T13:55:02.357Z,1019.89
2023-04-08T13:56:02.344Z,1019.91
2023-04-08T13:57:02.358Z,1019.93
2023-04-08T13:58:04.852Z,1019.91
2023-04-08T13:59:02.735Z,1019.89
2023-04-08T14:00:02.388Z,1019.88
2023-04-08T14:01:02.348Z,1019.88
2023-04-08T14:02:02.465Z,1019.87
2023-04-08T14:03:02.377Z,1019.88
2023-04-08T14:04:02.389Z,1019.86
2023-04-08T14:05:02.330Z,1019.89
2023-04-08T14:06:02.328Z,1019.86
2023-04-08T14:07:02.330Z,1019.85
2023-04-08T14:08:02.314Z,1019.83
2023-04-08T14:09:02.323Z,1019.85
2023-04-08T14:10:02.321Z,1019.81
2023-04-08T14:11:02.324Z,1019.80
2023-04-08T14:12:02.306Z,1019.80
2023-04-08T14:13:02.322Z,1019.84
2023-04-08T14:14:02.329Z,1019.81
2023-04-08T14:15:02.301Z,1019.84
2023-04-08T14:16:02.308Z,1019.83
2023-04-08T14:17:02.361Z,1019.84
2023-04-08T14:18:02.343Z,1019.82
2023-04-08T14:19:02.284Z,1019.82
2023-04-08T14:20:02.298Z,1019.86
2023-04-08T14:21:02.334Z,1019.81
2023-04-08T14:22:02.286Z,1019.84
2023-04-08T14:23:02.278Z,1019.84
2023-04-08T14:24:02.862Z,1019.86
2023-04-08T14:25:02.316Z,1019.82
2023-04-08T14:26:02.294Z,1019.82
2023-04-08T14:27:02.270Z,1019.82
2023-04-08T14:28:02.268Z,1019.86
2023-04-08T14:29:02.287Z,1019.88
2023-04-08T14:30:02.284Z,1019.87
2023-04-08T14:31:02.344Z,1019.87
2023-04-08T14:32:02.256Z,1019.86
2023-04-08T14:33:02.326Z,1019.86
2023-04-08T14:34:02.248Z,1019.87
2023-04-08T14:35:02.266Z,1019.87
2023-04-08T14:36:02.289Z,1019.92
2023-04-08T14:37:02.240Z,1019.90
2023-04-08T14:38:02.272Z,1019.90
2023-04-08T14:39:02.274Z,1019.86
2023-04-08T14:40:02.273Z,1019.85
2023-04-08T14:41:02.233Z,1019.87
2023-04-08T14:42:02.244Z,1019.86
2023-04-08T14:43:02.233Z,1019.84
2023-04-08T14:44:02.255Z,1019.82
2023-04-08T14:45:02.237Z,1019.86
2023-04-08T14:46:02.249Z,1019.85
2023-04-08T14:47:02.215Z,1019.88
2023-04-08T14:48:02.298Z,1019.85
2023-04-08T14:49:02.242Z,1019.84
2023-04-08T14:50:02.321Z,1019.86
2023-04-08T14:51:02.202Z,1019.84
2023-04-08T14:52:02.209Z,1019.86
2023-04-08T14:53:02.213Z,1019.84
2023-04-08T14:54:02.278Z,1019.86
2023-04-08T14:55:02.220Z,1019.85
2023-04-08T14:56:02.194Z,1019.84
2023-04-08T14:57:02.207Z,1019.84
2023-04-08T14:58:02.196Z,1019.80
2023-04-08T14:59:02.213Z,1019.80
2023-04-08T15:00:02.177Z,1019.78
2023-04-08T15:01:02.232Z,1019.80
2023-04-08T15:02:02.313Z,1019.81
2023-04-08T15:03:02.435Z,1019.82
2023-04-08T15:04:02.295Z,1019.79
2023-04-08T15:05:02.177Z,1019.83
2023-04-08T15:06:02.219Z,1019.78
2023-04-08T15:07:02.164Z,1019.79
2023-04-08T15:08:02.200Z,1019.81
2023-04-08T15:09:02.164Z,1019.76
2023-04-08T15:10:02.367Z,1019.75
2023-04-08T15:11:02.187Z,1019.75
2023-04-08T15:12:02.165Z,1019.78
2023-04-08T15:13:02.203Z,1019.79
2023-04-08T15:14:02.152Z,1019.78
2023-04-08T15:15:02.162Z,1019.73
2023-04-08T15:16:02.183Z,1019.72
2023-04-08T15:17:02.159Z,1019.72
2023-04-08T15:18:02.183Z,1019.71
2023-04-08T15:19:02.168Z,1019.70
2023-04-08T15:20:02.211Z,1019.67
2023-04-08T15:21:02.137Z,1019.67
2023-04-08T15:22:02.122Z,1019.67
2023-04-08T15:23:02.154Z,1019.66
2023-04-08T15:24:02.171Z,1019.65
2023-04-08T15:25:02.123Z,1019.67
2023-04-08T15:26:02.157Z,1019.63
2023-04-08T15:27:02.132Z,1019.66
2023-04-08T15:28:02.101Z,1019.66
2023-04-08T15:29:02.129Z,1019.61
2023-04-08T15:30:02.353Z,1019.64
2023-04-08T15:31:02.132Z,1019.65
2023-04-08T15:32:02.120Z,1019.62
2023-04-08T15:33:02.140Z,1019.62
2023-04-08T15:34:02.152Z,1019.63
2023-04-08T15:35:02.123Z,1019.65
2023-04-08T15:36:02.174Z,1019.61
2023-04-08T15:37:02.193Z,1019.67
2023-04-08T15:38:02.074Z,1019.62
2023-04-08T15:39:02.112Z,1019.69
2023-04-08T15:40:02.095Z,1019.70
2023-04-08T15:41:02.076Z,1019.72
2023-04-08T15:42:02.071Z,1019.69
2023-04-08T15:43:02.098Z,1019.72
2023-04-08T15:44:02.089Z,1019.67
2023-04-08T15:45:02.080Z,1019.71
2023-04-08T15:46:02.096Z,1019.72
2023-04-08T15:47:02.113Z,1019.74
2023-04-08T15:48:02.088Z,1019.74
2023-04-08T15:49:02.059Z,1019.73
2023-04-08T15:50:02.079Z,1019.72
2023-04-08T15:51:02.105Z,1019.76
2023-04-08T15:52:02.046Z,1019.75
2023-04-08T15:53:02.038Z,1019.74
2023-04-08T15:54:02.052Z,1019.80
2023-04-08T15:55:02.083Z,1019.78
2023-04-08T15:56:02.066Z,1019.74
2023-04-08T15:57:02.039Z,1019.76
2023-04-08T15:58:02.031Z,1019.83
2023-04-08T15:59:02.028Z,1019.80
2023-04-08T16:00:02.062Z,1019.81
2023-04-08T16:01:02.031Z,1019.82
2023-04-08T16:12:38.896Z,1019.85
2023-04-08T16:13:38.861Z,1019.87
2023-04-08T16:14:38.855Z,1019.86
2023-04-08T16:15:38.848Z,1019.87
2023-04-08T16:16:39.046Z,1019.88
2023-04-08T16:17:38.890Z,1019.91
2023-04-08T16:18:38.815Z,1019.87
2023-04-08T16:19:38.820Z,1019.89
2023-04-08T16:20:38.837Z,1019.89
2023-04-08T16:21:38.818Z,1019.91
2023-04-08T16:22:38.810Z,1019.90
2023-04-08T16:23:38.805Z,1019.89
2023-04-08T16:24:38.797Z,1019.95
2023-04-08T16:25:38.831Z,1019.92
2023-04-08T16:26:38.824Z,1019.95
2023-04-08T16:27:38.813Z,1019.93
2023-04-08T16:28:38.798Z,1019.90